createdAt,value
2018-07-27T00:02:05.634Z,16.50
2018-07-27T00:04:33.750Z,16.50
2018-07-27T00:09:29.382Z,16.50
2018-07-27T00:11:57.358Z,16.40
2018-07-27T00:14:25.124Z,16.40
2018-07-27T00:16:53.076Z,16.30
2018-07-27T00:19:20.986Z,16.30
2018-07-27T00:21:49.272Z,16.20
2018-07-27T00:24:17.403Z,16.20
2018-07-27T00:26:45.354Z,16.10
2018-07-27T00:29:13.369Z,16.10
2018-07-27T00:31:41.383Z,16.10
2018-07-27T00:34:09.162Z,16.00
2018-07-27T00:36:37.443Z,16.00
2018-07-27T00:39:06.701Z,16.00
2018-07-27T00:41:34.629Z,15.90
2018-07-27T00:44:02.947Z,15.90
2018-07-27T00:46:31.548Z,15.80
2018-07-27T00:48:59.526Z,15.80
2018-07-27T00:51:28.441Z,15.80
2018-07-27T00:53:56.466Z,15.70
2018-07-27T00:56:24.449Z,15.70
2018-07-27T00:58:52.427Z,15.60
2018-07-27T01:01:20.435Z,15.60
2018-07-27T01:03:48.413Z,15.60
2018-07-27T01:06:16.369Z,15.50
2018-07-27T01:08:44.451Z,15.60
2018-07-27T01:11:12.355Z,15.50
2018-07-27T01:13:40.391Z,15.50
2018-07-27T01:16:08.370Z,15.50
2018-07-27T01:18:36.698Z,15.50
2018-07-27T01:21:05.085Z,15.50
2018-07-27T01:23:32.912Z,15.50
2018-07-27T01:26:01.022Z,15.50
2018-07-27T01:28:28.859Z,15.50
2018-07-27T01:30:56.844Z,15.40
2018-07-27T01:33:24.896Z,15.40
2018-07-27T01:35:52.770Z,15.40
2018-07-27T01:40:48.616Z,15.30
2018-07-27T01:43:16.517Z,15.20
2018-07-27T01:45:44.640Z,15.20
2018-07-27T01:48:12.848Z,15.10
2018-07-27T01:50:41.222Z,15.10
2018-07-27T01:53:09.234Z,15.00
2018-07-27T01:55:37.439Z,15.00
2018-07-27T01:58:06.439Z,14.90
2018-07-27T02:03:02.223Z,14.90
2018-07-27T02:05:30.167Z,14.80
2018-07-27T02:07:58.172Z,14.80
2018-07-27T02:10:26.286Z,14.80
2018-07-27T02:12:54.527Z,14.80
2018-07-27T02:15:22.707Z,14.80
2018-07-27T02:17:51.002Z,14.80
2018-07-27T02:20:19.188Z,14.70
2018-07-27T02:22:47.046Z,14.70
2018-07-27T02:25:14.992Z,14.70
2018-07-27T02:27:42.980Z,14.70
2018-07-27T02:30:11.270Z,14.70
2018-07-27T02:32:39.480Z,14.70
2018-07-27T02:35:07.877Z,14.80
2018-07-27T02:37:36.037Z,14.80
2018-07-27T02:40:04.990Z,14.70
2018-07-27T02:42:33.009Z,14.70
2018-07-27T02:45:00.980Z,14.70
2018-07-27T02:47:28.838Z,14.70
2018-07-27T02:49:57.141Z,14.60
2018-07-27T02:52:25.133Z,14.60
2018-07-27T02:54:53.186Z,14.60
2018-07-27T02:57:21.289Z,14.50
2018-07-27T02:59:49.230Z,14.50
2018-07-27T03:02:17.325Z,14.50
2018-07-27T03:04:45.275Z,14.50
2018-07-27T03:07:13.494Z,14.50
2018-07-27T03:09:41.698Z,14.50
2018-07-27T03:12:09.723Z,14.50
2018-07-27T03:14:37.693Z,14.50
2018-07-27T03:17:05.903Z,14.50
2018-07-27T03:19:33.879Z,14.40
2018-07-27T03:22:01.679Z,14.40
2018-07-27T03:24:29.577Z,14.40
2018-07-27T03:26:57.683Z,14.40
2018-07-27T03:29:25.724Z,14.40
2018-07-27T03:31:53.805Z,14.30
2018-07-27T03:34:21.723Z,14.30
2018-07-27T03:36:49.957Z,14.30
2018-07-27T03:39:17.972Z,14.30
2018-07-27T03:41:45.972Z,14.30
2018-07-27T03:44:14.024Z,14.30
2018-07-27T03:46:42.193Z,14.20
2018-07-27T03:49:10.255Z,14.30
2018-07-27T03:51:38.033Z,14.30
2018-07-27T03:54:06.083Z,14.30
2018-07-27T03:56:34.237Z,14.40
2018-07-27T03:59:02.407Z,14.40
2018-07-27T04:01:30.717Z,14.40
2018-07-27T04:04:01.992Z,14.50
2018-07-27T04:06:30.208Z,14.50
2018-07-27T04:08:58.222Z,14.60
2018-07-27T04:11:26.397Z,14.60
2018-07-27T04:13:54.488Z,14.60
2018-07-27T04:16:22.425Z,14.60
2018-07-27T04:18:50.152Z,14.70
2018-07-27T04:21:18.212Z,14.70
2018-07-27T04:23:46.178Z,14.70
2018-07-27T04:26:14.071Z,14.80
2018-07-27T04:28:42.105Z,14.80
2018-07-27T04:31:11.037Z,14.80
2018-07-27T04:33:39.167Z,14.90
2018-07-27T04:36:07.360Z,14.90
2018-07-27T04:38:35.692Z,15.10
2018-07-27T04:41:03.855Z,15.20
2018-07-27T04:43:31.922Z,15.30
2018-07-27T04:46:00.464Z,15.40
2018-07-27T04:48:28.608Z,15.50
2018-07-27T04:50:56.977Z,15.60
2018-07-27T04:53:25.239Z,15.70
2018-07-27T04:55:53.600Z,15.80
2018-07-27T04:58:21.637Z,15.80
2018-07-27T05:00:49.716Z,15.90
2018-07-27T05:03:17.659Z,16.00
2018-07-27T05:05:45.675Z,16.10
2018-07-27T05:08:13.692Z,16.20
2018-07-27T05:13:16.417Z,16.30
2018-07-27T05:15:45.573Z,16.30
2018-07-27T05:18:13.634Z,16.40
2018-07-27T05:20:41.649Z,16.40
2018-07-27T05:23:09.515Z,16.50
2018-07-27T05:25:37.740Z,16.50
2018-07-27T05:28:05.952Z,16.60
2018-07-27T05:33:01.878Z,16.80
2018-07-27T05:35:29.764Z,16.90
2018-07-27T05:37:58.964Z,17.10
2018-07-27T05:40:26.920Z,17.20
2018-07-27T05:42:55.212Z,17.30
2018-07-27T05:45:23.358Z,17.40
2018-07-27T05:47:51.588Z,17.70
2018-07-27T05:50:19.749Z,18.10
2018-07-27T05:52:48.298Z,18.40
2018-07-27T05:55:16.467Z,18.80
2018-07-27T05:57:44.461Z,19.10
2018-07-27T06:02:40.718Z,19.60
2018-07-27T06:05:09.047Z,19.80
2018-07-27T06:07:37.605Z,20.00
2018-07-27T06:10:06.134Z,20.20
2018-07-27T06:12:34.513Z,20.30
2018-07-27T06:15:02.558Z,20.50
2018-07-27T06:17:31.830Z,20.70
2018-07-27T06:20:00.018Z,20.80
2018-07-27T06:25:20.642Z,21.20
2018-07-27T06:27:48.783Z,21.50
2018-07-27T06:30:17.274Z,21.70
2018-07-27T06:32:45.963Z,21.80
2018-07-27T06:35:15.916Z,22.00
2018-07-27T06:37:44.148Z,22.20
2018-07-27T06:40:12.851Z,22.30
2018-07-27T06:45:33.100Z,22.70
2018-07-27T06:48:02.260Z,22.80
2018-07-27T06:50:31.203Z,23.00
2018-07-27T06:52:59.408Z,23.20
2018-07-27T06:55:31.260Z,23.30
2018-07-27T06:58:00.756Z,23.50
2018-07-27T07:00:37.262Z,23.70
2018-07-27T07:03:06.110Z,23.90
2018-07-27T07:05:34.070Z,24.10
2018-07-27T07:08:02.800Z,24.20
2018-07-27T07:10:32.004Z,24.40
2018-07-27T07:13:00.904Z,24.50
2018-07-27T07:15:38.814Z,24.70
2018-07-27T07:18:07.882Z,24.80
2018-07-27T07:20:36.978Z,25.00
2018-07-27T07:23:12.507Z,25.00
2018-07-27T07:25:44.634Z,24.90
2018-07-27T07:28:15.803Z,24.70
2018-07-27T07:30:45.236Z,24.50
2018-07-27T07:33:14.038Z,24.50
2018-07-27T07:35:42.864Z,24.40
2018-07-27T07:38:12.776Z,24.40
2018-07-27T07:40:42.022Z,24.20
2018-07-27T07:43:10.996Z,24.20
2018-07-27T07:45:39.791Z,24.30
2018-07-27T07:48:08.339Z,24.50
2018-07-27T07:50:37.156Z,24.50
2018-07-27T07:53:06.517Z,24.40
2018-07-27T07:55:35.516Z,24.50
2018-07-27T07:58:09.525Z,24.50
2018-07-27T08:00:38.700Z,24.60
2018-07-27T08:03:07.878Z,24.60
2018-07-27T08:05:36.761Z,24.50
2018-07-27T08:08:06.036Z,24.60
2018-07-27T08:10:35.428Z,24.60
2018-07-27T08:13:04.736Z,24.50
2018-07-27T08:17:03.542Z,24.40
2018-07-27T08:19:32.290Z,24.40
2018-07-27T08:22:01.614Z,24.40
2018-07-27T08:24:30.376Z,24.60
2018-07-27T08:27:00.650Z,24.80
2018-07-27T08:29:31.570Z,25.10
2018-07-27T08:32:01.111Z,25.10
2018-07-27T08:34:30.192Z,25.20
2018-07-27T08:36:58.948Z,25.50
2018-07-27T08:39:31.330Z,25.80
2018-07-27T08:42:00.228Z,26.00
2018-07-27T08:44:31.294Z,26.20
2018-07-27T08:47:06.419Z,26.40
2018-07-27T08:49:35.934Z,26.60
2018-07-27T08:52:04.530Z,26.50
2018-07-27T08:54:33.431Z,26.60
2018-07-27T08:57:02.696Z,26.80
2018-07-27T08:59:31.769Z,26.90
2018-07-27T09:02:00.666Z,26.90
2018-07-27T09:04:30.386Z,27.00
2018-07-27T09:06:59.269Z,27.20
2018-07-27T09:09:28.064Z,27.40
2018-07-27T09:11:57.006Z,27.50
2018-07-27T09:14:29.476Z,27.60
2018-07-27T09:16:58.448Z,27.70
2018-07-27T09:19:27.468Z,27.90
2018-07-27T09:21:56.212Z,27.90
2018-07-27T09:24:25.410Z,27.80
2018-07-27T09:26:54.173Z,28.00
2018-07-27T09:29:22.976Z,28.10
2018-07-27T09:31:52.035Z,28.10
2018-07-27T09:35:50.469Z,28.20
2018-07-27T09:38:19.042Z,28.30
2018-07-27T09:40:48.802Z,28.40
2018-07-27T09:43:18.225Z,28.40
2018-07-27T09:45:46.732Z,28.40
2018-07-27T09:48:15.424Z,28.30
2018-07-27T09:50:44.860Z,28.00
2018-07-27T09:53:13.964Z,27.80
2018-07-27T09:55:43.246Z,27.70
2018-07-27T09:58:11.955Z,27.50
2018-07-27T10:00:45.755Z,27.40
2018-07-27T10:03:14.248Z,27.30
2018-07-27T10:05:42.861Z,27.30
2018-07-27T10:08:11.724Z,27.60
2018-07-27T10:13:08.946Z,28.50
2018-07-27T10:15:37.462Z,28.60
2018-07-27T10:18:06.209Z,28.40
2018-07-27T10:20:34.686Z,28.30
2018-07-27T10:23:03.228Z,28.20
2018-07-27T10:28:00.928Z,27.80
2018-07-27T10:30:30.024Z,27.60
2018-07-27T10:32:58.517Z,27.50
2018-07-27T10:35:27.049Z,27.30
2018-07-27T10:37:55.645Z,27.20
2018-07-27T10:40:24.378Z,27.10
2018-07-27T10:42:53.329Z,27.00
2018-07-27T10:45:23.416Z,27.00
2018-07-27T10:47:53.648Z,27.00
2018-07-27T10:50:24.382Z,27.10
2018-07-27T10:52:53.540Z,27.50
2018-07-27T10:55:30.603Z,28.10
2018-07-27T10:58:03.962Z,28.50
2018-07-27T11:00:37.704Z,28.60
2018-07-27T11:03:06.403Z,28.60
2018-07-27T11:08:21.160Z,28.90
2018-07-27T11:13:43.022Z,29.60
2018-07-27T11:16:12.994Z,30.00
2018-07-27T11:18:44.019Z,30.40
2018-07-27T11:21:13.061Z,30.70
2018-07-27T11:26:31.148Z,31.30
2018-07-27T11:29:05.420Z,31.70
2018-07-27T11:31:34.079Z,31.90
2018-07-27T11:34:05.304Z,31.80
2018-07-27T11:36:37.144Z,31.60
2018-07-27T11:41:59.688Z,31.00
2018-07-27T11:44:31.477Z,30.70
2018-07-27T11:47:03.412Z,30.20
2018-07-27T11:49:33.449Z,29.70
2018-07-27T11:52:03.121Z,29.30
2018-07-27T11:54:43.616Z,28.90
2018-07-27T11:57:14.022Z,28.60
2018-07-27T11:59:43.147Z,28.50
2018-07-27T12:03:42.532Z,28.20
2018-07-27T12:06:12.148Z,28.00
2018-07-27T12:08:40.732Z,27.80
2018-07-27T12:11:09.217Z,27.60
2018-07-27T12:13:37.696Z,27.50
2018-07-27T12:16:06.355Z,27.40
2018-07-27T12:18:34.884Z,27.30
2018-07-27T12:21:03.495Z,27.30
2018-07-27T12:23:31.997Z,27.00
2018-07-27T12:26:00.464Z,26.70
2018-07-27T12:28:28.963Z,26.50
2018-07-27T12:30:57.456Z,26.50
2018-07-27T12:33:25.891Z,26.50
2018-07-27T12:35:54.372Z,26.50
2018-07-27T12:38:22.884Z,26.60
2018-07-27T12:40:52.324Z,26.60
2018-07-27T12:43:20.846Z,26.60
2018-07-27T12:45:49.340Z,26.70
2018-07-27T12:48:17.797Z,26.80
2018-07-27T12:50:46.292Z,26.90
2018-07-27T12:53:14.917Z,26.90
2018-07-27T12:55:43.383Z,27.00
2018-07-27T12:58:11.854Z,27.10
2018-07-27T13:00:40.384Z,27.20
2018-07-27T13:03:08.916Z,27.20
2018-07-27T13:05:37.428Z,27.30
2018-07-27T13:08:05.976Z,27.60
2018-07-27T13:10:34.798Z,28.00
2018-07-27T13:13:03.309Z,28.30
2018-07-27T13:15:31.816Z,28.30
2018-07-27T13:18:00.313Z,28.40
2018-07-27T13:21:02.746Z,28.60
2018-07-27T13:23:31.216Z,28.90
2018-07-27T13:28:44.435Z,29.70
2018-07-27T13:31:13.419Z,29.90
2018-07-27T13:33:53.210Z,29.90
2018-07-27T13:36:21.682Z,29.80
2018-07-27T13:38:50.223Z,29.60
2018-07-27T13:41:18.708Z,29.30
2018-07-27T13:43:47.217Z,29.10
2018-07-27T13:46:15.786Z,28.80
2018-07-27T13:48:44.385Z,28.50
2018-07-27T13:51:12.963Z,28.50
2018-07-27T13:53:41.519Z,28.40
2018-07-27T13:56:10.170Z,28.30
2018-07-27T13:58:38.729Z,28.00
2018-07-27T14:01:07.414Z,27.80
2018-07-27T14:03:36.031Z,27.60
2018-07-27T14:06:04.505Z,27.60
2018-07-27T14:11:01.153Z,27.70
2018-07-27T14:13:29.679Z,27.90
2018-07-27T14:15:58.856Z,28.10
2018-07-27T14:18:27.416Z,28.30
2018-07-27T14:20:55.909Z,28.50
2018-07-27T14:25:58.986Z,28.50
2018-07-27T14:28:27.709Z,28.50
2018-07-27T14:32:25.528Z,28.50
2018-07-27T14:34:54.189Z,28.30
2018-07-27T14:37:22.776Z,28.00
2018-07-27T14:39:51.259Z,27.90
2018-07-27T14:42:19.860Z,27.80
2018-07-27T14:44:48.405Z,27.80
2018-07-27T14:49:45.265Z,27.80
2018-07-27T14:52:14.082Z,27.80
2018-07-27T14:54:42.790Z,27.90
2018-07-27T14:57:11.525Z,28.00
2018-07-27T14:59:40.109Z,28.00
2018-07-27T15:02:09.097Z,28.00
2018-07-27T15:04:37.810Z,28.00
2018-07-27T15:07:06.555Z,28.00
2018-07-27T15:09:35.333Z,27.90
2018-07-27T15:12:04.327Z,27.90
2018-07-27T15:14:33.429Z,27.80
2018-07-27T15:17:02.258Z,27.80
2018-07-27T15:19:31.381Z,27.80
2018-07-27T15:22:00.351Z,27.90
2018-07-27T15:24:29.575Z,27.90
2018-07-27T15:26:58.755Z,27.90
2018-07-27T15:29:27.638Z,27.90
2018-07-27T15:31:56.745Z,27.90
2018-07-27T15:34:25.458Z,27.80
2018-07-27T15:36:55.862Z,27.70
2018-07-27T15:41:53.922Z,27.30
2018-07-27T15:44:23.048Z,27.00
2018-07-27T15:46:52.119Z,26.70
2018-07-27T15:49:20.902Z,26.30
2018-07-27T15:51:49.679Z,26.00
2018-07-27T15:54:18.258Z,25.80
2018-07-27T15:56:47.268Z,25.50
2018-07-27T15:59:16.781Z,25.30
2018-07-27T16:01:46.075Z,25.10
2018-07-27T16:04:15.045Z,25.00
2018-07-27T16:06:44.044Z,24.80
2018-07-27T16:09:13.424Z,24.80
2018-07-27T16:11:42.133Z,24.70
2018-07-27T16:14:10.734Z,24.60
2018-07-27T16:16:39.675Z,24.60
2018-07-27T16:19:08.693Z,24.60
2018-07-27T16:21:37.585Z,24.50
2018-07-27T16:24:06.617Z,24.50
2018-07-27T16:26:35.207Z,24.50
2018-07-27T16:29:04.034Z,24.50
2018-07-27T16:31:32.881Z,24.50
2018-07-27T16:34:01.762Z,24.50
2018-07-27T16:36:30.609Z,24.60
2018-07-27T16:46:25.493Z,24.50
2018-07-27T16:48:54.300Z,24.40
2018-07-27T16:51:23.079Z,24.40
2018-07-27T16:53:51.981Z,24.30
2018-07-27T16:56:20.986Z,24.20
2018-07-27T16:58:49.960Z,24.20
2018-07-27T17:01:18.850Z,24.10
2018-07-27T17:03:47.654Z,24.00
2018-07-27T17:06:16.516Z,24.00
2018-07-27T17:08:44.454Z,23.80
2018-07-27T17:11:13.379Z,23.70
2018-07-27T17:13:42.212Z,23.60
2018-07-27T17:16:15.413Z,23.50
2018-07-27T17:18:43.630Z,23.50
2018-07-27T17:21:12.799Z,23.40
2018-07-27T17:23:45.490Z,23.20
2018-07-27T17:29:11.162Z,23.10
2018-07-27T17:34:26.467Z,22.90
2018-07-27T17:36:55.072Z,22.80
2018-07-27T17:39:24.615Z,22.80
2018-07-27T17:41:55.258Z,22.80
2018-07-27T17:44:23.846Z,22.70
2018-07-27T17:49:20.651Z,22.70
2018-07-27T17:51:49.221Z,22.70
2018-07-27T17:54:17.756Z,22.70
2018-07-27T17:56:46.352Z,22.60
2018-07-27T17:59:14.870Z,22.60
2018-07-27T18:01:43.487Z,22.60
2018-07-27T18:04:12.145Z,22.50
2018-07-27T18:06:40.692Z,22.50
2018-07-27T18:09:11.258Z,22.50
2018-07-27T18:11:40.051Z,22.50
2018-07-27T18:14:08.686Z,22.50
2018-07-27T18:16:37.160Z,22.40
2018-07-27T18:19:06.261Z,22.40
2018-07-27T18:21:34.787Z,22.30
2018-07-27T18:24:03.326Z,22.30
2018-07-27T18:26:31.892Z,22.30
2018-07-27T18:29:00.874Z,22.20
2018-07-27T18:31:28.859Z,22.20
2018-07-27T18:33:57.350Z,22.10
2018-07-27T18:36:25.854Z,22.00
2018-07-27T18:38:54.488Z,22.00
2018-07-27T18:41:23.110Z,21.90
2018-07-27T18:43:51.825Z,21.80
2018-07-27T18:46:20.145Z,21.70
2018-07-27T18:48:48.008Z,21.60
2018-07-27T18:51:15.778Z,21.50
2018-07-27T18:53:50.684Z,21.40
2018-07-27T18:56:18.641Z,21.30
2018-07-27T18:58:46.682Z,21.20
2018-07-27T19:01:14.783Z,21.10
2018-07-27T19:03:44.066Z,21.00
2018-07-27T19:06:14.332Z,21.00
2018-07-27T19:08:42.091Z,20.90
2018-07-27T19:11:14.155Z,20.90
2018-07-27T19:13:43.581Z,20.90
2018-07-27T19:16:12.188Z,20.80
2018-07-27T19:18:41.541Z,20.80
2018-07-27T19:21:10.282Z,20.70
2018-07-27T19:23:40.763Z,20.60
2018-07-27T19:26:10.116Z,20.60
2018-07-27T19:28:39.918Z,20.50
2018-07-27T19:31:08.360Z,20.50
2018-07-27T19:33:42.489Z,20.40
2018-07-27T19:36:10.428Z,20.40
2018-07-27T19:38:38.198Z,20.40
2018-07-27T19:41:07.196Z,20.40
2018-07-27T19:43:35.444Z,20.40
2018-07-27T19:46:03.223Z,20.30
2018-07-27T19:51:12.852Z,20.20
2018-07-27T19:53:41.274Z,20.20
2018-07-27T19:56:10.060Z,20.20
2018-07-27T19:58:38.464Z,20.20
2018-07-27T20:01:07.520Z,20.20
2018-07-27T20:03:35.642Z,20.20
2018-07-27T20:08:49.137Z,20.20
2018-07-27T20:17:15.829Z,20.10
2018-07-27T20:19:47.475Z,20.00
2018-07-27T20:22:20.124Z,19.90
2018-07-27T20:24:55.838Z,19.80
2018-07-27T20:27:24.359Z,19.70
2018-07-27T20:32:20.280Z,19.60
2018-07-27T20:34:48.254Z,19.50
2018-07-27T20:39:53.374Z,19.30
2018-07-27T20:42:22.971Z,19.30
2018-07-27T20:47:35.955Z,19.20
2018-07-27T20:50:07.118Z,19.10
2018-07-27T20:52:39.155Z,19.10
2018-07-27T20:55:15.933Z,19.00
2018-07-27T20:57:43.965Z,18.90
2018-07-27T21:00:13.149Z,18.90
2018-07-27T21:02:41.714Z,18.80
2018-07-27T21:05:09.672Z,18.80
2018-07-27T21:07:41.459Z,18.70
2018-07-27T21:10:16.727Z,18.70
2018-07-27T21:12:51.841Z,18.60
2018-07-27T21:15:19.742Z,18.70
2018-07-27T21:17:48.227Z,18.60
2018-07-27T21:20:16.665Z,18.70
2018-07-27T21:22:45.035Z,18.60
2018-07-27T21:25:12.887Z,18.60
2018-07-27T21:27:48.919Z,18.60
2018-07-27T21:30:22.421Z,18.50
2018-07-27T21:32:50.437Z,18.50
2018-07-27T21:35:18.412Z,18.50
2018-07-27T21:37:48.608Z,18.60
2018-07-27T21:40:16.629Z,18.60
2018-07-27T21:45:27.440Z,18.60
2018-07-27T21:47:58.422Z,18.70
2018-07-27T21:50:32.017Z,18.70
2018-07-27T21:53:03.563Z,18.70
2018-07-27T21:55:43.210Z,18.70
2018-07-27T21:58:20.353Z,18.70
2018-07-27T22:00:48.577Z,18.60
2018-07-27T22:03:19.313Z,18.60
2018-07-27T22:05:50.587Z,18.60
2018-07-27T22:08:24.412Z,18.50
2018-07-27T22:10:52.439Z,18.40
2018-07-27T22:13:20.354Z,18.30
2018-07-27T22:15:48.251Z,18.20
2018-07-27T22:18:16.128Z,18.20
2018-07-27T22:20:43.981Z,18.10
2018-07-27T22:23:11.761Z,18.10
2018-07-27T22:25:41.254Z,18.10
2018-07-27T22:28:10.152Z,18.00
2018-07-27T22:30:40.496Z,18.00
2018-07-27T22:33:11.987Z,18.00
2018-07-27T22:35:43.327Z,17.90
2018-07-27T22:38:11.204Z,17.90
2018-07-27T22:40:38.996Z,17.90
2018-07-27T22:43:08.690Z,17.90
2018-07-27T22:45:38.525Z,17.90
2018-07-27T22:48:12.838Z,17.80
2018-07-27T22:50:40.919Z,17.80
2018-07-27T22:53:08.857Z,17.80
2018-07-27T22:55:41.837Z,17.70
2018-07-27T22:58:09.990Z,17.70
2018-07-27T23:00:38.655Z,17.60
2018-07-27T23:03:19.045Z,17.60
2018-07-27T23:05:47.048Z,17.50
2018-07-27T23:08:15.233Z,17.50
2018-07-27T23:10:43.253Z,17.50
2018-07-27T23:13:11.509Z,17.40
2018-07-27T23:15:39.516Z,17.40
2018-07-27T23:18:07.507Z,17.40
2018-07-27T23:20:35.411Z,17.40
2018-07-27T23:23:03.308Z,17.40
2018-07-27T23:25:31.177Z,17.40
2018-07-27T23:27:58.988Z,17.30
2018-07-27T23:30:27.009Z,17.30
2018-07-27T23:32:55.917Z,17.30
2018-07-27T23:35:23.831Z,17.30
2018-07-27T23:37:51.797Z,17.20
2018-07-27T23:40:19.683Z,17.20
2018-07-27T23:42:47.598Z,17.20
2018-07-27T23:45:15.370Z,17.10
2018-07-27T23:47:43.109Z,17.10
2018-07-27T23:50:10.869Z,17.10
2018-07-27T23:52:38.600Z,17.00
2018-07-27T23:55:06.583Z,17.00
2018-07-27T23:57:34.661Z,16.90
